• Join FlightAware (Why Join?)
  • Login
  • US Flag 
10:15PM EST


 

Airport Tracker/Info


-or-


 

Live Flight TrackerFlight Track Log ✈ N273SK ✈ 26-Apr-2013 ✈ CYUL - KLGA

Flight Track Log - Related Links

Times and Time Zones

All times are in EDT time to prevent confusion due to time zone crossing. See the N273SK flight status page for this flight to view local times or setup timezone preferences in your user account.

Time Position Orientation Groundspeed Altitude Reporting Facility
EDT Latitude Longitude Course Direction KTS MPH feet Rate Location/Type
04:55PM 45.4617 -73.7894 189° South 411 473 1,200  Level Boston Center
04:55PM 45.4500 -73.8000 212° Southwest 170 196 1,900 2,462 Climbing Montreal Center
04:56PM 45.4500 -73.8667 270° West 200 230 4,400 2,350 Climbing Montreal Center
04:57PM 45.3833 -73.9167 208° Southwest 240 276 6,600 2,300 Climbing Montreal Center
04:58PM 45.1111 -73.9921 207° Southwest  Level FlightAware Approximate
04:58PM 45.3167 -73.9500 199° South 260 299 9,000  Level Montreal Center
04:59PM 45.0215 -74.0561 207° Southwest  Level FlightAware Approximate
04:59PM 45.2500 -73.9667 190° South 270 311 10,900  Level Montreal Center
05:00PM 44.9408 -74.0853 189° South  Level FlightAware Approximate
05:00PM 45.1500 -74.0000 193° South 320 368 11,900  Level Montreal Center
05:01PM 45.0667 -74.0167 188° South 340 391 13,200 1,300 Climbing Montreal Center
05:02PM 44.9667 -74.0000 173° South 360 414 14,500 1,250 Climbing Montreal Center
05:03PM 44.8667 -74.0000 180° South 370 426 15,700 1,176 Climbing Montreal Center
05:04PM 44.8111 -74.0056 184° South 385 443 16,500 1,000 Climbing Boston Center
05:05PM 44.7031 -73.9939 176° South 385 443 17,400 800 Climbing Boston Center
05:06PM 44.5928 -73.9822 176° South 395 455 18,100 550 Climbing Boston Center
05:07PM 44.4783 -73.9706 176° South 407 468 18,500 650 Climbing Boston Center
05:08PM 44.3514 -73.9614 177° South 407 468 19,400 900 Climbing Boston Center
05:09PM 44.2347 -73.9497 176° South 412 474 20,300 864 Climbing Boston Center
05:10PM 44.1161 -73.9350 175° South 422 486 21,300 909 Climbing Boston Center
05:11PM 43.9725 -73.9228 176° South 428 493 22,300 900 Climbing Boston Center
05:12PM 43.8497 -73.9111 176° South 435 501 23,100 864 Climbing Boston Center
05:13PM 43.7042 -73.8961 176° South 441 507 24,200 818 Climbing Boston Center
05:14PM 43.5958 -73.8878 177° South 441 507 24,900 600 Climbing Boston Center
05:15PM 43.4731 -73.8733 175° South 441 507 25,400 550 Climbing Boston Center
05:16PM 43.3397 -73.8589 175° South 441 507 26,000 300 Climbing Boston Center
05:17PM 43.2150 -73.8503 177° South 441 507 26,000 -50 Level Boston Center
05:18PM 43.0858 -73.8389 176° South 447 514 25,900 -350 Descending Boston Center
05:19PM 42.9567 -73.8272 176° South 452 520 25,300 -800 Descending Boston Center
05:20PM 42.8297 -73.8131 175° South 464 534 24,300 -950 Descending Boston Center
05:21PM 42.7050 -73.7992 175° South 464 534 23,400 -950 Descending Boston Center
05:22PM 42.5803 -73.7708 171° South 464 534 22,400 -700 Descending Boston Center
05:23PM 42.4575 -73.7458 171° South 459 528 22,000 -200 Descending Boston Center
05:24PM 42.3328 -73.7208 172° South 453 521 22,000 -1,050 Level Boston Center
05:25PM 42.2142 -73.6903 169° South 447 514 19,900 -2,000 Descending Boston Center
05:26PM 42.0978 -73.6711 173° South 441 507 18,000 -950 Descending Boston Center
05:27PM 41.9850 -73.6858 186° South 418 481 18,000 -100 Level Boston Center
05:28PM 41.8847 -73.7033 187° South 412 474 17,800 -800 Descending Boston Center
05:29PM 41.7617 -73.7258 188° South 406 467 16,400 -1,450 Descending Boston Center
05:30PM 41.6656 -73.7406 187° South 406 467 14,900 -1,750 Descending Boston Center
05:31PM 41.5550 -73.7606 188° South 389 448 12,900 -1,826 Descending Boston Center
05:33PM 41.4000 -73.7833 186° South 296 341 10,000 -1,416 Descending New York TRACON
05:34PM 41.3333 -73.7833 180° South 287 330 9,100 -500 Descending New York TRACON
05:35PM 41.2667 -73.7333 151° Southeast 292 336 9,000 -50 Descending New York TRACON
05:36PM 41.2000 -73.6667 143° Southeast 293 337 9,000 -421 Level New York TRACON
05:37PM 41.1333 -73.6167 151° Southeast 286 329 8,200 -1,100 Descending New York TRACON
05:38PM 41.0500 -73.6000 171° South 274 315 6,800 -1,350 Descending New York TRACON
05:39PM 41.0167 -73.5500 131° Southeast 260 299 5,500 -1,421 Descending New York TRACON
05:40PM 40.9500 -73.5333 169° South 268 308 4,100 -750 Descending New York TRACON
05:41PM 40.9167 -73.6167 242° Southwest 252 290 4,000 -50 Descending New York TRACON
05:42PM 40.8500 -73.6667 210° Southwest 257 296 4,000  Level New York TRACON
05:43PM 40.8167 -73.7333 237° Southwest 253 291 4,000  Level New York TRACON
05:44PM 40.7833 -73.8333 246° West 249 287 4,000  Level New York TRACON
05:45PM 40.7833 -73.9000 270° West 193 222 4,000 -400 Level New York TRACON
05:46PM 40.7667 -73.9667 252° West 189 217 3,200 -500 Descending New York TRACON
05:47PM 40.7333 -74.0167 229° Southwest 208 239 3,000 -250 Descending New York TRACON
05:48PM 40.7167 -73.9500 108° East 193 222 2,700 -300 Descending New York TRACON